Time;durP1;ratioP1;P1;durP2;ratioP2;P2;SDS_P1;SDS_P2;PMS_P1;PMS_P2;Temp;Humidity;BMP_temperature;BMP_pressure;BME280_temperature;BME280_humidity;BME280_pressure;Samples;Min_cycle;Max_cycle;Signal;HPM_P1;HPM_P2
2021/01/01 00:33:54;;;;;;;31.83;18.58;;;563.70;1126.40;;;;;;4824442;27;7237451;-63
2021/01/01 00:36:20;;;;;;;30.60;18.05;;;563.60;1177.60;;;;;;5044951;28;20048;-63
2021/01/01 00:38:51;;;;;;;29.67;18.40;;;563.70;1126.40;;;;;;5036811;28;20099;-64
2021/01/01 00:41:29;;;;;;;34.38;18.50;;;563.70;1152.00;;;;;;5035325;28;58048;-63
2021/01/01 00:43:55;;;;;;;29.75;18.73;;;563.70;1126.40;;;;;;5027590;28;20061;-60
2021/01/01 00:46:21;;;;;;;25.63;16.92;;;563.80;1203.20;;;;;;5026893;28;20072;-59
2021/01/01 00:48:48;;;;;;;24.55;18.58;;;564.00;1126.40;;;;;;5067637;28;20025;-58
2021/01/01 00:51:13;;;;;;;32.00;17.90;;;564.10;1100.80;;;;;;5067428;28;20450;-58
2021/01/01 00:53:39;;;;;;;23.05;17.30;;;564.10;1100.80;;;;;;5065978;28;20132;-57
2021/01/01 00:56:05;;;;;;;35.35;19.70;;;564.10;1100.80;;;;;;5067416;28;20056;-56
2021/01/01 00:58:31;;;;;;;27.30;17.33;;;564.10;1075.20;;;;;;5066061;28;20047;-56
2021/01/01 01:00:57;;;;;;;39.05;18.20;;;564.10;1100.80;;;;;;5067253;28;20041;-57
2021/01/01 01:03:22;;;;;;;24.67;16.85;;;564.10;1075.20;;;;;;5065447;28;20448;-57
2021/01/01 01:05:48;;;;;;;24.15;15.98;;;564.10;1075.20;;;;;;5042715;28;20186;-59
2021/01/01 01:08:14;;;;;;;25.02;16.52;;;564.00;1100.80;;;;;;5047105;28;20033;-58
2021/01/01 01:10:39;;;;;;;28.58;15.45;;;563.90;1100.80;;;;;;5047070;28;20426;-59
2021/01/01 01:13:05;;;;;;;25.38;15.88;;;563.70;1100.80;;;;;;5047104;28;20091;-61
2021/01/01 01:15:31;;;;;;;21.55;15.82;;;563.70;1126.40;;;;;;5047049;28;20033;-59
2021/01/01 01:17:56;;;;;;;24.30;16.73;;;563.70;1126.40;;;;;;5047112;28;20472;-60
2021/01/01 01:20:22;;;;;;;25.40;16.00;;;563.50;1126.40;;;;;;5047079;28;20017;-64
2021/01/01 01:22:48;;;;;;;22.65;16.23;;;563.50;1126.40;;;;;;5046612;28;20159;-63
2021/01/01 01:25:13;;;;;;;27.52;15.57;;;563.30;1126.40;;;;;;5047072;28;20029;-61
2021/01/01 01:27:39;;;;;;;24.10;15.48;;;563.20;1152.00;;;;;;5045440;28;20041;-61
2021/01/01 01:30:05;;;;;;;19.23;15.93;;;538.50;1126.40;;;;;;5046741;28;20365;-62
2021/01/01 01:32:31;;;;;;;21.63;14.35;;;538.50;1126.40;;;;;;5054708;28;20072;-60
2021/01/01 01:34:57;;;;;;;30.05;16.33;;;538.50;1126.40;;;;;;5067015;28;20021;-60
2021/01/01 01:37:22;;;;;;;17.00;13.70;;;538.40;1126.40;;;;;;5065999;28;20028;-60
2021/01/01 01:39:48;;;;;;;20.08;14.07;;;538.40;1126.40;;;;;;5084917;28;20021;-62
2021/01/01 01:42:14;;;;;;;21.10;13.82;;;538.40;1152.00;;;;;;5085254;28;20041;-64
2021/01/01 01:44:39;;;;;;;20.30;13.93;;;538.30;1152.00;;;;;;5074964;28;20017;-63
2021/01/01 01:47:05;;;;;;;18.27;13.73;;;538.30;1152.00;;;;;;5073394;28;20063;-61
2021/01/01 01:49:31;;;;;;;24.98;14.50;;;538.20;1152.00;;;;;;5072962;28;20029;-62
2021/01/01 01:51:56;;;;;;;22.77;14.73;;;538.20;1152.00;;;;;;5071823;28;20044;-62
2021/01/01 01:54:22;;;;;;;20.65;13.73;;;538.20;1152.00;;;;;;5070626;28;20056;-62
2021/01/01 01:56:48;;;;;;;16.42;13.57;;;538.10;1152.00;;;;;;5071741;28;20024;-64
2021/01/01 01:59:15;;;;;;;21.33;12.55;;;538.10;1152.00;;;;;;5071735;28;20047;-62
2021/01/01 02:01:41;;;;;;;20.60;12.95;;;538.20;1152.00;;;;;;5071543;28;20074;-62
2021/01/01 02:04:06;;;;;;;19.67;13.98;;;538.20;1152.00;;;;;;5073103;28;20056;-61
2021/01/01 02:06:32;;;;;;;21.88;12.70;;;538.20;1152.00;;;;;;5071151;28;20032;-60
2021/01/01 02:08:58;;;;;;;18.98;11.80;;;538.20;1152.00;;;;;;5071198;28;20536;-63
2021/01/01 02:11:24;;;;;;;15.35;11.95;;;538.10;1152.00;;;;;;5071347;28;20039;-63
2021/01/01 02:13:51;;;;;;;19.10;12.70;;;538.10;1152.00;;;;;;5054169;28;20044;-59
2021/01/01 02:16:18;;;;;;;21.65;12.88;;;538.10;1152.00;;;;;;5071564;28;20033;-60
2021/01/01 02:18:43;;;;;;;14.68;12.00;;;538.10;1152.00;;;;;;5071345;28;20142;-61
